地図

経路データ

SID SEASON NUMBER BASIN SUBBASIN NAME ISO_TIME NATURE LAT LON WMO_WIND WMO_PRES WMO_AGENCY TRACK_TYPE DIST2LAND LANDFALL IFLAG USA_AGENCY USA_ATCF_ID USA_LAT USA_LON USA_RECORD USA_STATUS USA_WIND USA_PRES USA_SSHS USA_R34_NE USA_R34_SE USA_R34_SW USA_R34_NW USA_R50_NE USA_R50_SE USA_R50_SW USA_R50_NW USA_R64_NE USA_R64_SE USA_R64_SW USA_R64_NW USA_POCI USA_ROCI USA_RMW USA_EYE TOKYO_LAT TOKYO_LON TOKYO_GRADE TOKYO_WIND TOKYO_PRES TOKYO_R50_DIR TOKYO_R50_LONG TOKYO_R50_SHORT TOKYO_R30_DIR TOKYO_R30_LONG TOKYO_R30_SHORT TOKYO_LAND CMA_LAT CMA_LON CMA_CAT CMA_WIND CMA_PRES HKO_LAT HKO_LON HKO_CAT HKO_WIND HKO_PRES NEWDELHI_LAT NEWDELHI_LON NEWDELHI_GRADE NEWDELHI_WIND NEWDELHI_PRES NEWDELHI_CI NEWDELHI_DP NEWDELHI_POCI REUNION_LAT REUNION_LON REUNION_TYPE REUNION_WIND REUNION_PRES REUNION_TNUM REUNION_CI REUNION_RMW REUNION_R34_NE REUNION_R34_SE REUNION_R34_SW REUNION_R34_NW REUNION_R50_NE REUNION_R50_SE REUNION_R50_SW REUNION_R50_NW REUNION_R64_NE REUNION_R64_SE REUNION_R64_SW REUNION_R64_NW BOM_LAT BOM_LON BOM_TYPE BOM_WIND BOM_PRES BOM_TNUM BOM_CI BOM_RMW BOM_R34_NE BOM_R34_SE BOM_R34_SW BOM_R34_NW BOM_R50_NE BOM_R50_SE BOM_R50_SW BOM_R50_NW BOM_R64_NE BOM_R64_SE BOM_R64_SW BOM_R64_NW BOM_ROCI BOM_POCI BOM_EYE BOM_POS_METHOD BOM_PRES_METHOD NADI_LAT NADI_LON NADI_CAT NADI_WIND NADI_PRES WELLINGTON_LAT WELLINGTON_LON WELLINGTON_WIND WELLINGTON_PRES DS824_LAT DS824_LON DS824_STAGE DS824_WIND DS824_PRES TD9636_LAT TD9636_LON TD9636_STAGE TD9636_WIND TD9636_PRES TD9635_LAT TD9635_LON TD9635_WIND TD9635_PRES TD9635_ROCI NEUMANN_LAT NEUMANN_LON NEUMANN_CLASS NEUMANN_WIND NEUMANN_PRES MLC_LAT MLC_LON MLC_CLASS MLC_WIND MLC_PRES USA_GUST BOM_GUST BOM_GUST_PER REUNION_GUST REUNION_GUST_PER USA_SEAHGT USA_SEARAD_NE USA_SEARAD_SE USA_SEARAD_SW USA_SEARAD_NW STORM_SPEED STORM_DIR
1895233N24128 1895 25 WP MM NOT_NAMED 1895-08-20 16:00:00 NR 23.6000 128.200 main 647 647 __________O___ -1 23.6000 128.200 7 19 185
1895233N24128 1895 25 WP MM NOT_NAMED 1895-08-20 18:00:00 NR 22.9844 128.143 main 652 655 __________P___ -1 22.9844 128.143 7 17 185
1895233N24128 1895 25 WP MM NOT_NAMED 1895-08-20 21:00:00 NR 22.1604 128.068 main 682 682 __________P___ -1 22.1604 128.068 7 14 185
1895233N24128 1895 25 WP MM NOT_NAMED 1895-08-21 00:00:00 NR 21.5927 128.015 main 694 683 __________P___ -1 21.5927 128.015 7 7 185
1895233N24128 1895 25 WP MM NOT_NAMED 1895-08-21 03:00:00 NR 21.4349 127.996 main 683 683 __________P___ -1 21.4349 127.996 7 1 0
1895233N24128 1895 25 WP MM NOT_NAMED 1895-08-21 04:00:00 NR 21.5000 128.000 main 689 689 __________O___ -1 21.5000 128.000 7 8 0
1895233N24128 1895 25 WP MM NOT_NAMED 1895-08-21 06:00:00 NR 21.8212 128.024 main 692 662 __________P___ -1 21.8212 128.024 7 14 4
1895233N24128 1895 25 WP MM NOT_NAMED 1895-08-21 09:00:00 NR 22.6578 128.090 main 662 644 __________P___ -1 22.6578 128.090 7 19 4
1895233N24128 1895 25 WP MM NOT_NAMED 1895-08-21 12:00:00 NR 23.7033 128.179 main 644 628 __________P___ -1 23.7033 128.179 7 21 5
1895233N24128 1895 25 WP MM NOT_NAMED 1895-08-21 15:00:00 NR 24.7133 128.272 main 636 634 __________P___ -1 24.7133 128.272 7 20 5
1895233N24128 1895 25 WP MM NOT_NAMED 1895-08-21 16:00:00 NR 25.0000 128.300 main 634 634 __________O___ -1 25.0000 128.300 3 12 5
1895233N24128 1895 25 WP MM NOT_NAMED 1895-08-21 18:00:00 NR 25.3316 128.337 main 634 632 __________P___ -1 25.3316 128.337 3 8 6
1895233N24128 1895 25 WP MM NOT_NAMED 1895-08-21 21:00:00 NR 25.6901 128.386 main 632 601 __________P___ -1 25.6901 128.386 3 6 8
1895233N24128 1895 25 WP MM NOT_NAMED 1895-08-22 00:00:00 NR 25.9543 128.432 main 601 577 __________P___ -1 25.9543 128.432 3 5 10
1895233N24128 1895 25 WP MM NOT_NAMED 1895-08-22 03:00:00 NR 26.2053 128.481 main 577 566 __________P___ -1 26.2053 128.481 3 5 8
1895233N24128 1895 25 WP MM NOT_NAMED 1895-08-22 04:00:00 NR 26.3000 128.500 main 566 535 __________O___ -1 26.3000 128.500 4 7 6
1895233N24128 1895 25 WP MM NOT_NAMED 1895-08-22 06:00:00 NR 26.5552 128.534 main 535 490 __________P___ -1 26.5552 128.534 4 8 7
1895233N24128 1895 25 WP MM NOT_NAMED 1895-08-22 09:00:00 NR 26.9631 128.591 main 490 446 __________P___ -1 26.9631 128.591 4 9 8
1895233N24128 1895 25 WP MM NOT_NAMED 1895-08-22 12:00:00 NR 27.3957 128.664 main 446 401 __________P___ -1 27.3957 128.664 4 9 10
1895233N24128 1895 25 WP MM NOT_NAMED 1895-08-22 15:00:00 NR 27.8467 128.761 main 401 381 __________P___ -1 27.8467 128.761 4 9 11
1895233N24128 1895 25 WP MM NOT_NAMED 1895-08-22 16:00:00 NR 28.0000 128.800 main 381 347 __________O___ -1 28.0000 128.800 4 10 13
1895233N24128 1895 25 WP MM NOT_NAMED 1895-08-22 18:00:00 NR 28.3100 128.890 main 347 287 __________P___ -1 28.3100 128.890 4 10 16
1895233N24128 1895 25 WP MM NOT_NAMED 1895-08-22 21:00:00 NR 28.7817 129.051 main 287 232 __________P___ -1 28.7817 129.051 4 10 18
1895233N24128 1895 25 WP MM NOT_NAMED 1895-08-23 00:00:00 NR 29.2591 129.235 main 232 184 __________P___ -1 29.2591 129.235 4 10 19
1895233N24128 1895 25 WP MM NOT_NAMED 1895-08-23 03:00:00 NR 29.7396 129.433 main 184 159 __________P___ -1 29.7396 129.433 4 10 20
1895233N24128 1895 25 WP MM NOT_NAMED 1895-08-23 04:00:00 NR 29.9000 129.500 main 159 __________O___ -1 29.9000 129.500 7 10 17

デジタル台風データ・検索

IBTrACS Databaseについて

本データベースは、米国NOAAが公開する1842年以降の世界の熱帯低気圧のベストトラックデータアーカイブInternational Best Track Archive for Climate Stewardship (IBTrACS)を、ウェブで閲覧しやすい形式に変換したものです。

最終更新日:2021-12-06